sensor_id;sensor_type;location;lat;lon;timestamp;pressure;altitude;pressure_sealevel;temperature;humidity
33953;BME280;20231;42.710;23.280;2023-03-22T00:00:43;94630.59;;;13.30;67.45
33953;BME280;20231;42.710;23.280;2023-03-22T00:03:09;94624.34;;;13.26;67.13
33953;BME280;20231;42.710;23.280;2023-03-22T00:05:35;94626.09;;;12.87;68.40
33953;BME280;20231;42.710;23.280;2023-03-22T00:08:00;94617.66;;;13.07;67.84
33953;BME280;20231;42.710;23.280;2023-03-22T00:10:30;94627.47;;;13.28;66.94
33953;BME280;20231;42.710;23.280;2023-03-22T00:12:55;94625.06;;;13.18;67.42
33953;BME280;20231;42.710;23.280;2023-03-22T00:15:21;94625.72;;;13.24;67.15
33953;BME280;20231;42.710;23.280;2023-03-22T00:17:47;94621.50;;;13.45;66.31
33953;BME280;20231;42.710;23.280;2023-03-22T00:20:15;94626.44;;;13.16;67.42
33953;BME280;20231;42.710;23.280;2023-03-22T00:22:42;94626.41;;;13.29;66.82
33953;BME280;20231;42.710;23.280;2023-03-22T00:25:07;94626.44;;;13.38;66.76
33953;BME280;20231;42.710;23.280;2023-03-22T00:27:33;94623.03;;;13.15;67.85
33953;BME280;20231;42.710;23.280;2023-03-22T00:29:58;94615.44;;;13.22;67.06
33953;BME280;20231;42.710;23.280;2023-03-22T00:32:24;94606.78;;;13.08;67.24
33953;BME280;20231;42.710;23.280;2023-03-22T00:34:49;94612.59;;;12.97;67.72
33953;BME280;20231;42.710;23.280;2023-03-22T00:37:14;94615.38;;;13.14;67.66
33953;BME280;20231;42.710;23.280;2023-03-22T00:39:41;94614.41;;;13.10;68.17
33953;BME280;20231;42.710;23.280;2023-03-22T00:42:06;94619.16;;;12.99;68.22
33953;BME280;20231;42.710;23.280;2023-03-22T00:44:32;94609.13;;;12.88;68.19
33953;BME280;20231;42.710;23.280;2023-03-22T00:46:57;94603.13;;;12.82;68.41
33953;BME280;20231;42.710;23.280;2023-03-22T00:49:23;94604.97;;;12.95;67.80
33953;BME280;20231;42.710;23.280;2023-03-22T00:51:50;94608.56;;;12.99;68.12
33953;BME280;20231;42.710;23.280;2023-03-22T00:54:15;94608.25;;;13.23;67.16
33953;BME280;20231;42.710;23.280;2023-03-22T00:56:42;94603.09;;;13.18;67.48
33953;BME280;20231;42.710;23.280;2023-03-22T00:59:13;94603.75;;;13.01;67.97
33953;BME280;20231;42.710;23.280;2023-03-22T01:01:39;94615.06;;;12.93;68.90
33953;BME280;20231;42.710;23.280;2023-03-22T01:04:04;94595.09;;;12.87;68.86
33953;BME280;20231;42.710;23.280;2023-03-22T01:06:33;94603.91;;;12.83;69.34
33953;BME280;20231;42.710;23.280;2023-03-22T01:08:59;94596.06;;;12.91;69.23
33953;BME280;20231;42.710;23.280;2023-03-22T01:11:25;94604.28;;;12.90;69.38
33953;BME280;20231;42.710;23.280;2023-03-22T01:13:51;94597.97;;;12.99;69.09
33953;BME280;20231;42.710;23.280;2023-03-22T01:16:17;94586.28;;;12.79;69.64
33953;BME280;20231;42.710;23.280;2023-03-22T01:18:43;94581.56;;;12.76;70.15
33953;BME280;20231;42.710;23.280;2023-03-22T01:21:08;94597.16;;;12.90;69.84
33953;BME280;20231;42.710;23.280;2023-03-22T01:23:34;94594.44;;;13.04;69.21
33953;BME280;20231;42.710;23.280;2023-03-22T01:25:59;94591.59;;;13.00;69.09
33953;BME280;20231;42.710;23.280;2023-03-22T01:28:25;94588.81;;;13.05;69.09
33953;BME280;20231;42.710;23.280;2023-03-22T01:30:51;94599.53;;;13.00;69.83
33953;BME280;20231;42.710;23.280;2023-03-22T01:33:16;94587.56;;;13.03;69.47
33953;BME280;20231;42.710;23.280;2023-03-22T01:35:42;94588.88;;;12.92;69.90
33953;BME280;20231;42.710;23.280;2023-03-22T01:38:07;94587.16;;;13.09;69.15
33953;BME280;20231;42.710;23.280;2023-03-22T01:40:33;94588.22;;;12.86;69.87
33953;BME280;20231;42.710;23.280;2023-03-22T01:42:58;94587.09;;;13.01;69.69
33953;BME280;20231;42.710;23.280;2023-03-22T01:45:32;94573.81;;;12.92;69.92
33953;BME280;20231;42.710;23.280;2023-03-22T01:48:06;94577.81;;;12.90;69.79
33953;BME280;20231;42.710;23.280;2023-03-22T01:50:34;94588.50;;;12.85;69.50
33953;BME280;20231;42.710;23.280;2023-03-22T01:53:02;94578.00;;;12.93;69.56
33953;BME280;20231;42.710;23.280;2023-03-22T01:55:30;94573.84;;;13.01;69.10
33953;BME280;20231;42.710;23.280;2023-03-22T01:57:57;94576.44;;;12.92;69.70
33953;BME280;20231;42.710;23.280;2023-03-22T02:00:23;94582.03;;;12.91;69.49
33953;BME280;20231;42.710;23.280;2023-03-22T02:02:50;94577.63;;;12.86;69.54
33953;BME280;20231;42.710;23.280;2023-03-22T02:05:16;94590.84;;;12.65;70.61
33953;BME280;20231;42.710;23.280;2023-03-22T02:07:43;94579.91;;;12.80;69.88
33953;BME280;20231;42.710;23.280;2023-03-22T02:10:15;94589.97;;;12.91;69.55
33953;BME280;20231;42.710;23.280;2023-03-22T02:12:59;94577.13;;;12.84;69.74
33953;BME280;20231;42.710;23.280;2023-03-22T02:21:55;94582.91;;;12.86;69.48
33953;BME280;20231;42.710;23.280;2023-03-22T02:24:51;94593.59;;;12.81;69.75
33953;BME280;20231;42.710;23.280;2023-03-22T02:30:45;94587.69;;;12.98;69.10
33953;BME280;20231;42.710;23.280;2023-03-22T02:33:40;94593.09;;;13.37;74.52
33953;BME280;20231;42.710;23.280;2023-03-22T02:36:37;94583.13;;;13.12;68.35
33953;BME280;20231;42.710;23.280;2023-03-22T02:42:32;94591.06;;;13.12;67.96
33953;BME280;20231;42.710;23.280;2023-03-22T02:45:23;94598.91;;;12.81;68.70
33953;BME280;20231;42.710;23.280;2023-03-22T02:48:43;94596.16;;;12.86;68.64
33953;BME280;20231;42.710;23.280;2023-03-22T02:51:18;94600.16;;;12.97;67.99
33953;BME280;20231;42.710;23.280;2023-03-22T02:53:56;94596.84;;;12.92;68.40
33953;BME280;20231;42.710;23.280;2023-03-22T02:59:01;94599.09;;;12.85;68.44
33953;BME280;20231;42.710;23.280;2023-03-22T03:01:30;94597.63;;;12.92;68.58
33953;BME280;20231;42.710;23.280;2023-03-22T03:04:00;94611.16;;;12.91;68.62
33953;BME280;20231;42.710;23.280;2023-03-22T03:06:32;94588.88;;;12.92;68.17
33953;BME280;20231;42.710;23.280;2023-03-22T03:09:00;94608.53;;;12.78;68.77
33953;BME280;20231;42.710;23.280;2023-03-22T03:11:29;94607.56;;;12.74;68.95
33953;BME280;20231;42.710;23.280;2023-03-22T03:13:55;94594.09;;;12.62;69.38
33953;BME280;20231;42.710;23.280;2023-03-22T03:16:22;94602.31;;;12.60;69.30
33953;BME280;20231;42.710;23.280;2023-03-22T03:24:25;94605.00;;;12.47;69.97
33953;BME280;20231;42.710;23.280;2023-03-22T03:27:01;94601.28;;;12.48;70.10
33953;BME280;20231;42.710;23.280;2023-03-22T03:29:47;94612.97;;;12.69;69.40
33953;BME280;20231;42.710;23.280;2023-03-22T03:32:25;94605.63;;;12.66;69.57
33953;BME280;20231;42.710;23.280;2023-03-22T03:35:04;94606.03;;;12.59;69.59
33953;BME280;20231;42.710;23.280;2023-03-22T03:37:44;94609.78;;;12.58;69.68
33953;BME280;20231;42.710;23.280;2023-03-22T03:40:16;94610.50;;;12.72;69.08
33953;BME280;20231;42.710;23.280;2023-03-22T03:42:47;94614.13;;;12.76;69.10
33953;BME280;20231;42.710;23.280;2023-03-22T03:45:15;94615.22;;;12.75;68.86
33953;BME280;20231;42.710;23.280;2023-03-22T03:47:43;94603.88;;;12.61;68.81
33953;BME280;20231;42.710;23.280;2023-03-22T03:50:12;94619.81;;;12.70;68.84
33953;BME280;20231;42.710;23.280;2023-03-22T03:52:39;94622.25;;;12.80;68.38
33953;BME280;20231;42.710;23.280;2023-03-22T03:55:05;94615.53;;;12.74;68.23
33953;BME280;20231;42.710;23.280;2023-03-22T03:57:31;94608.59;;;12.64;68.60
33953;BME280;20231;42.710;23.280;2023-03-22T03:59:57;94608.13;;;12.49;69.11
33953;BME280;20231;42.710;23.280;2023-03-22T04:02:22;94618.75;;;12.71;68.72
33953;BME280;20231;42.710;23.280;2023-03-22T04:05:08;94612.31;;;12.63;68.38
33953;BME280;20231;42.710;23.280;2023-03-22T04:07:42;94627.63;;;12.53;68.69
33953;BME280;20231;42.710;23.280;2023-03-22T04:10:08;94614.81;;;12.46;68.94
33953;BME280;20231;42.710;23.280;2023-03-22T04:12:34;94627.13;;;12.51;69.26
33953;BME280;20231;42.710;23.280;2023-03-22T04:14:59;94636.31;;;12.67;68.88
33953;BME280;20231;42.710;23.280;2023-03-22T04:17:25;94641.19;;;12.73;68.50
33953;BME280;20231;42.710;23.280;2023-03-22T04:19:54;94627.13;;;12.51;69.00
33953;BME280;20231;42.710;23.280;2023-03-22T04:22:21;94638.22;;;12.53;69.42
33953;BME280;20231;42.710;23.280;2023-03-22T04:24:47;94625.34;;;12.60;68.99
33953;BME280;20231;42.710;23.280;2023-03-22T04:27:18;94632.41;;;12.51;69.47
33953;BME280;20231;42.710;23.280;2023-03-22T04:29:44;94632.22;;;12.61;69.14
33953;BME280;20231;42.710;23.280;2023-03-22T04:32:14;94620.69;;;12.43;69.37
33953;BME280;20231;42.710;23.280;2023-03-22T04:34:41;94637.97;;;12.63;69.04
33953;BME280;20231;42.710;23.280;2023-03-22T04:37:06;94634.38;;;12.59;69.11
33953;BME280;20231;42.710;23.280;2023-03-22T04:39:32;94631.41;;;12.60;69.16
33953;BME280;20231;42.710;23.280;2023-03-22T04:41:58;94642.31;;;12.59;69.24
33953;BME280;20231;42.710;23.280;2023-03-22T04:44:23;94629.84;;;12.59;69.24
33953;BME280;20231;42.710;23.280;2023-03-22T04:46:48;94633.50;;;12.50;69.47
33953;BME280;20231;42.710;23.280;2023-03-22T04:49:14;94633.59;;;12.45;69.37
33953;BME280;20231;42.710;23.280;2023-03-22T04:51:40;94637.13;;;12.54;69.38
33953;BME280;20231;42.710;23.280;2023-03-22T04:54:05;94634.88;;;12.61;69.10
33953;BME280;20231;42.710;23.280;2023-03-22T04:56:30;94651.91;;;12.68;68.91
33953;BME280;20231;42.710;23.280;2023-03-22T04:58:56;94639.09;;;12.48;69.47
33953;BME280;20231;42.710;23.280;2023-03-22T05:01:21;94648.56;;;12.63;69.17
33953;BME280;20231;42.710;23.280;2023-03-22T05:03:47;94652.63;;;12.47;69.81
33953;BME280;20231;42.710;23.280;2023-03-22T05:06:13;94658.50;;;12.44;70.03
33953;BME280;20231;42.710;23.280;2023-03-22T05:08:38;94660.66;;;12.55;69.40
33953;BME280;20231;42.710;23.280;2023-03-22T05:11:10;94662.59;;;12.50;69.79
33953;BME280;20231;42.710;23.280;2023-03-22T05:13:36;94664.38;;;12.41;70.11
33953;BME280;20231;42.710;23.280;2023-03-22T05:16:03;94667.63;;;12.51;69.79
33953;BME280;20231;42.710;23.280;2023-03-22T05:18:29;94657.25;;;12.28;70.32
33953;BME280;20231;42.710;23.280;2023-03-22T05:20:58;94669.78;;;12.36;70.16
33953;BME280;20231;42.710;23.280;2023-03-22T05:23:24;94674.38;;;12.44;70.00
33953;BME280;20231;42.710;23.280;2023-03-22T05:25:51;94680.28;;;12.27;70.66
33953;BME280;20231;42.710;23.280;2023-03-22T05:28:18;94677.28;;;12.56;69.84
33953;BME280;20231;42.710;23.280;2023-03-22T05:30:46;94681.44;;;12.62;69.60
33953;BME280;20231;42.710;23.280;2023-03-22T05:33:13;94672.88;;;12.65;69.31
33953;BME280;20231;42.710;23.280;2023-03-22T05:35:41;94684.72;;;12.67;69.16
33953;BME280;20231;42.710;23.280;2023-03-22T05:38:07;94685.34;;;12.51;69.88
33953;BME280;20231;42.710;23.280;2023-03-22T05:40:33;94685.16;;;12.47;70.00
33953;BME280;20231;42.710;23.280;2023-03-22T05:42:58;94676.03;;;12.53;69.45
33953;BME280;20231;42.710;23.280;2023-03-22T05:45:24;94686.59;;;12.53;69.40
33953;BME280;20231;42.710;23.280;2023-03-22T05:47:50;94686.81;;;12.57;69.09
33953;BME280;20231;42.710;23.280;2023-03-22T05:50:18;94674.47;;;12.52;68.98
33953;BME280;20231;42.710;23.280;2023-03-22T05:52:44;94677.22;;;12.61;68.98
33953;BME280;20231;42.710;23.280;2023-03-22T05:55:11;94685.34;;;12.64;68.88
33953;BME280;20231;42.710;23.280;2023-03-22T05:57:38;94692.00;;;12.62;69.31
33953;BME280;20231;42.710;23.280;2023-03-22T06:00:09;94690.81;;;12.54;69.46
33953;BME280;20231;42.710;23.280;2023-03-22T06:02:38;94682.41;;;12.39;69.90
33953;BME280;20231;42.710;23.280;2023-03-22T06:05:05;94694.56;;;12.40;70.09
33953;BME280;20231;42.710;23.280;2023-03-22T06:07:30;94705.66;;;12.42;70.13
33953;BME280;20231;42.710;23.280;2023-03-22T06:09:56;94690.25;;;12.30;70.34
33953;BME280;20231;42.710;23.280;2023-03-22T06:12:21;94694.84;;;12.52;69.92
33953;BME280;20231;42.710;23.280;2023-03-22T06:14:49;94706.53;;;12.37;70.32
33953;BME280;20231;42.710;23.280;2023-03-22T06:17:17;94645.09;;;12.27;69.75
33953;BME280;20231;42.710;23.280;2023-03-22T06:19:44;94676.94;;;12.35;73.71
33953;BME280;20231;42.710;23.280;2023-03-22T06:22:09;94696.59;;;13.18;88.06
33953;BME280;20231;42.710;23.280;2023-03-22T06:24:35;94698.59;;;12.99;69.99
33953;BME280;20231;42.710;23.280;2023-03-22T06:27:01;94713.97;;;12.89;69.32
33953;BME280;20231;42.710;23.280;2023-03-22T06:29:26;94711.59;;;12.74;69.12
33953;BME280;20231;42.710;23.280;2023-03-22T06:31:52;94708.97;;;12.61;68.66
33953;BME280;20231;42.710;23.280;2023-03-22T06:34:17;94714.66;;;12.68;68.69
33953;BME280;20231;42.710;23.280;2023-03-22T06:36:43;94714.66;;;12.68;68.86
33953;BME280;20231;42.710;23.280;2023-03-22T06:39:09;94725.25;;;12.68;69.17
33953;BME280;20231;42.710;23.280;2023-03-22T06:41:34;94678.69;;;12.40;69.47
33953;BME280;20231;42.710;23.280;2023-03-22T06:44:05;94727.09;;;12.67;70.63
33953;BME280;20231;42.710;23.280;2023-03-22T06:46:34;94727.97;;;12.89;70.03
33953;BME280;20231;42.710;23.280;2023-03-22T06:49:00;94722.94;;;12.75;70.75
33953;BME280;20231;42.710;23.280;2023-03-22T06:51:25;94690.97;;;12.36;71.28
33953;BME280;20231;42.710;23.280;2023-03-22T06:53:51;94730.41;;;12.73;71.14
33953;BME280;20231;42.710;23.280;2023-03-22T06:56:16;94730.31;;;12.78;70.79
33953;BME280;20231;42.710;23.280;2023-03-22T06:58:41;94731.69;;;12.88;70.46
33953;BME280;20231;42.710;23.280;2023-03-22T07:01:07;94728.81;;;12.85;70.47
33953;BME280;20231;42.710;23.280;2023-03-22T07:03:34;94727.53;;;12.96;69.85
33953;BME280;20231;42.710;23.280;2023-03-22T07:06:05;94693.06;;;12.74;69.77
33953;BME280;20231;42.710;23.280;2023-03-22T07:11:40;94724.31;;;12.72;71.00
33953;BME280;20231;42.710;23.280;2023-03-22T07:14:05;94704.16;;;12.76;70.27
33953;BME280;20231;42.710;23.280;2023-03-22T07:16:32;94749.03;;;12.94;70.47
33953;BME280;20231;42.710;23.280;2023-03-22T07:19:00;94745.09;;;13.05;68.92
33953;BME280;20231;42.710;23.280;2023-03-22T07:21:35;94750.19;;;13.15;69.13
33953;BME280;20231;42.710;23.280;2023-03-22T07:24:06;94743.63;;;13.13;69.29
33953;BME280;20231;42.710;23.280;2023-03-22T07:26:37;94744.69;;;13.12;69.70
33953;BME280;20231;42.710;23.280;2023-03-22T07:29:02;94722.84;;;12.93;69.22
33953;BME280;20231;42.710;23.280;2023-03-22T07:31:28;94764.28;;;13.24;68.75
33953;BME280;20231;42.710;23.280;2023-03-22T07:33:53;94748.97;;;13.21;68.92
33953;BME280;20231;42.710;23.280;2023-03-22T07:36:19;94768.84;;;13.10;69.28
33953;BME280;20231;42.710;23.280;2023-03-22T07:38:50;94765.84;;;13.25;68.35
33953;BME280;20231;42.710;23.280;2023-03-22T07:41:16;94769.31;;;13.12;68.63
33953;BME280;20231;42.710;23.280;2023-03-22T07:43:43;94773.34;;;13.10;69.15
33953;BME280;20231;42.710;23.280;2023-03-22T07:46:10;94778.06;;;12.99;69.23
33953;BME280;20231;42.710;23.280;2023-03-22T07:48:36;94750.38;;;13.05;68.68
33953;BME280;20231;42.710;23.280;2023-03-22T07:51:03;94767.84;;;13.06;69.06
33953;BME280;20231;42.710;23.280;2023-03-22T07:53:29;94776.06;;;13.18;68.92
33953;BME280;20231;42.710;23.280;2023-03-22T07:55:54;94764.19;;;13.16;68.46
33953;BME280;20231;42.710;23.280;2023-03-22T07:58:21;94760.19;;;13.05;68.73
33953;BME280;20231;42.710;23.280;2023-03-22T08:00:48;94770.69;;;13.23;68.79
33953;BME280;20231;42.710;23.280;2023-03-22T08:03:18;94771.75;;;13.09;69.04
33953;BME280;20231;42.710;23.280;2023-03-22T08:05:44;94785.19;;;13.12;69.83
33953;BME280;20231;42.710;23.280;2023-03-22T08:08:15;94780.81;;;12.94;70.45
33953;BME280;20231;42.710;23.280;2023-03-22T08:10:51;94745.31;;;12.82;70.12
33953;BME280;20231;42.710;23.280;2023-03-22T08:13:17;94764.03;;;12.99;69.76
33953;BME280;20231;42.710;23.280;2023-03-22T08:15:50;94775.59;;;13.03;70.04
33953;BME280;20231;42.710;23.280;2023-03-22T08:18:16;94754.34;;;12.81;70.54
33953;BME280;20231;42.710;23.280;2023-03-22T08:21:07;94761.41;;;12.85;70.47
33953;BME280;20231;42.710;23.280;2023-03-22T08:23:48;94784.63;;;13.15;70.15
33953;BME280;20231;42.710;23.280;2023-03-22T08:26:13;94789.72;;;13.12;69.68
33953;BME280;20231;42.710;23.280;2023-03-22T08:28:41;94744.72;;;12.85;69.91
33953;BME280;20231;42.710;23.280;2023-03-22T08:31:11;94782.47;;;13.17;69.20
33953;BME280;20231;42.710;23.280;2023-03-22T08:33:37;94792.69;;;13.10;69.70
33953;BME280;20231;42.710;23.280;2023-03-22T08:36:08;94793.47;;;12.97;70.24
33953;BME280;20231;42.710;23.280;2023-03-22T08:38:34;94783.34;;;12.99;70.22
33953;BME280;20231;42.710;23.280;2023-03-22T08:41:00;94794.06;;;13.08;69.67
33953;BME280;20231;42.710;23.280;2023-03-22T08:43:25;94787.50;;;12.92;69.11
33953;BME280;20231;42.710;23.280;2023-03-22T08:45:51;94793.66;;;13.01;68.55
33953;BME280;20231;42.710;23.280;2023-03-22T08:48:17;94804.72;;;13.16;68.44
33953;BME280;20231;42.710;23.280;2023-03-22T08:50:43;94803.84;;;13.07;68.94
33953;BME280;20231;42.710;23.280;2023-03-22T08:53:08;94802.81;;;12.95;69.37
33953;BME280;20231;42.710;23.280;2023-03-22T08:55:35;94801.44;;;12.97;69.59
33953;BME280;20231;42.710;23.280;2023-03-22T08:58:01;94791.19;;;12.51;69.81
33953;BME280;20231;42.710;23.280;2023-03-22T09:00:28;94808.34;;;12.80;69.32
33953;BME280;20231;42.710;23.280;2023-03-22T09:02:55;94795.53;;;12.74;69.43
33953;BME280;20231;42.710;23.280;2023-03-22T09:05:21;94801.34;;;12.89;69.24
33953;BME280;20231;42.710;23.280;2023-03-22T09:07:51;94786.72;;;12.91;70.06
33953;BME280;20231;42.710;23.280;2023-03-22T09:10:16;94818.66;;;13.08;69.71
33953;BME280;20231;42.710;23.280;2023-03-22T09:12:42;94817.13;;;12.94;69.33
33953;BME280;20231;42.710;23.280;2023-03-22T09:15:08;94812.28;;;12.96;69.01
33953;BME280;20231;42.710;23.280;2023-03-22T09:17:33;94818.28;;;13.01;69.16
33953;BME280;20231;42.710;23.280;2023-03-22T09:19:59;94824.75;;;13.09;68.74
33953;BME280;20231;42.710;23.280;2023-03-22T09:22:25;94791.28;;;12.86;67.69
33953;BME280;20231;42.710;23.280;2023-03-22T09:24:56;94822.81;;;13.01;70.62
33953;BME280;20231;42.710;23.280;2023-03-22T09:27:21;94815.91;;;13.27;71.18
33953;BME280;20231;42.710;23.280;2023-03-22T09:29:47;94806.56;;;13.29;69.56
33953;BME280;20231;42.710;23.280;2023-03-22T09:32:15;94819.59;;;13.39;68.63
33953;BME280;20231;42.710;23.280;2023-03-22T09:34:41;94823.31;;;13.38;68.98
33953;BME280;20231;42.710;23.280;2023-03-22T09:37:06;94806.34;;;13.39;68.36
33953;BME280;20231;42.710;23.280;2023-03-22T09:39:32;94807.84;;;13.32;68.52
33953;BME280;20231;42.710;23.280;2023-03-22T09:41:59;94790.69;;;13.16;68.91
33953;BME280;20231;42.710;23.280;2023-03-22T09:44:33;94801.97;;;13.21;69.42
33953;BME280;20231;42.710;23.280;2023-03-22T09:47:04;94816.28;;;13.20;69.61
33953;BME280;20231;42.710;23.280;2023-03-22T09:49:39;94819.63;;;13.26;69.30
33953;BME280;20231;42.710;23.280;2023-03-22T09:52:16;94818.66;;;13.08;69.21
33953;BME280;20231;42.710;23.280;2023-03-22T09:54:45;94802.97;;;13.12;69.28
33953;BME280;20231;42.710;23.280;2023-03-22T10:00:34;94794.34;;;13.06;69.14
33953;BME280;20231;42.710;23.280;2023-03-22T10:05:56;94823.16;;;13.21;68.90
33953;BME280;20231;42.710;23.280;2023-03-22T10:16:32;94817.69;;;13.18;69.41
33953;BME280;20231;42.710;23.280;2023-03-22T10:19:04;94814.78;;;13.28;69.23
33953;BME280;20231;42.710;23.280;2023-03-22T10:21:32;94828.63;;;13.38;69.12
33953;BME280;20231;42.710;23.280;2023-03-22T10:24:11;94819.09;;;13.37;68.92
33953;BME280;20231;42.710;23.280;2023-03-22T10:26:46;94810.00;;;13.30;68.74
33953;BME280;20231;42.710;23.280;2023-03-22T10:29:37;94817.25;;;13.24;69.11
33953;BME280;20231;42.710;23.280;2023-03-22T10:32:21;94828.84;;;13.28;68.95
33953;BME280;20231;42.710;23.280;2023-03-22T10:35:02;94789.53;;;13.08;69.28
33953;BME280;20231;42.710;23.280;2023-03-22T10:37:31;94805.78;;;13.29;69.30
33953;BME280;20231;42.710;23.280;2023-03-22T10:40:15;94819.66;;;13.48;69.29
33953;BME280;20231;42.710;23.280;2023-03-22T10:42:56;94822.38;;;13.56;68.94
33953;BME280;20231;42.710;23.280;2023-03-22T10:45:24;94828.38;;;13.61;68.73
33953;BME280;20231;42.710;23.280;2023-03-22T10:51:02;94793.41;;;13.38;69.02
33953;BME280;20231;42.710;23.280;2023-03-22T10:56:03;94828.06;;;13.63;68.54
33953;BME280;20231;42.710;23.280;2023-03-22T10:58:30;94830.25;;;13.61;68.19
33953;BME280;20231;42.710;23.280;2023-03-22T11:01:07;94818.78;;;13.52;67.81
33953;BME280;20231;42.710;23.280;2023-03-22T11:03:50;94828.94;;;13.58;67.72
33953;BME280;20231;42.710;23.280;2023-03-22T11:06:22;94827.59;;;13.61;68.20
33953;BME280;20231;42.710;23.280;2023-03-22T11:09:10;94821.53;;;13.47;67.77
33953;BME280;20231;42.710;23.280;2023-03-22T11:11:56;94821.59;;;13.91;83.91
33953;BME280;20231;42.710;23.280;2023-03-22T11:14:32;94818.69;;;13.79;74.04
33953;BME280;20231;42.710;23.280;2023-03-22T11:19:31;94820.22;;;13.80;68.13
33953;BME280;20231;42.710;23.280;2023-03-22T11:21:59;94816.03;;;13.79;67.54
33953;BME280;20231;42.710;23.280;2023-03-22T11:24:26;94820.09;;;13.76;67.91
33953;BME280;20231;42.710;23.280;2023-03-22T11:29:43;94810.63;;;13.84;75.02
33953;BME280;20231;42.710;23.280;2023-03-22T11:35:17;94807.59;;;13.77;67.97
33953;BME280;20231;42.710;23.280;2023-03-22T11:37:49;94807.09;;;13.75;68.05
33953;BME280;20231;42.710;23.280;2023-03-22T11:40:26;94809.75;;;13.75;68.18
33953;BME280;20231;42.710;23.280;2023-03-22T11:43:02;94810.81;;;13.52;68.47
33953;BME280;20231;42.710;23.280;2023-03-22T11:45:36;94807.41;;;13.52;69.69
33953;BME280;20231;42.710;23.280;2023-03-22T11:48:28;94786.72;;;13.40;69.41
33953;BME280;20231;42.710;23.280;2023-03-22T11:50:54;94796.63;;;13.48;68.89
33953;BME280;20231;42.710;23.280;2023-03-22T11:53:24;94802.19;;;13.47;69.06
33953;BME280;20231;42.710;23.280;2023-03-22T11:55:53;94799.91;;;13.53;68.52
33953;BME280;20231;42.710;23.280;2023-03-22T12:01:03;94804.13;;;13.54;66.65
33953;BME280;20231;42.710;23.280;2023-03-22T12:03:32;94811.78;;;13.56;66.82
33953;BME280;20231;42.710;23.280;2023-03-22T12:06:05;94807.22;;;13.48;66.92
33953;BME280;20231;42.710;23.280;2023-03-22T12:08:48;94811.50;;;13.57;67.08
33953;BME280;20231;42.710;23.280;2023-03-22T12:11:28;94807.69;;;13.50;67.18
33953;BME280;20231;42.710;23.280;2023-03-22T12:14:00;94806.47;;;13.56;67.38
33953;BME280;20231;42.710;23.280;2023-03-22T12:16:46;94789.44;;;13.49;67.51
33953;BME280;20231;42.710;23.280;2023-03-22T12:19:19;94808.53;;;13.59;67.87
33953;BME280;20231;42.710;23.280;2023-03-22T12:21:48;94804.50;;;13.61;67.56
33953;BME280;20231;42.710;23.280;2023-03-22T12:24:36;94787.03;;;13.60;67.45
33953;BME280;20231;42.710;23.280;2023-03-22T12:27:03;94805.22;;;13.53;67.86
33953;BME280;20231;42.710;23.280;2023-03-22T12:29:32;94792.47;;;13.55;67.47
33953;BME280;20231;42.710;23.280;2023-03-22T12:32:05;94766.16;;;13.46;67.86
33953;BME280;20231;42.710;23.280;2023-03-22T12:34:46;94781.78;;;13.69;66.77
33953;BME280;20231;42.710;23.280;2023-03-22T12:37:33;94774.28;;;13.62;66.19
33953;BME280;20231;42.710;23.280;2023-03-22T12:40:17;94799.16;;;13.75;65.38
33953;BME280;20231;42.710;23.280;2023-03-22T12:45:51;94791.69;;;13.77;65.10
33953;BME280;20231;42.710;23.280;2023-03-22T12:48:25;94784.31;;;13.74;64.77
33953;BME280;20231;42.710;23.280;2023-03-22T12:50:59;94786.00;;;13.70;64.85
33953;BME280;20231;42.710;23.280;2023-03-22T12:53:30;94793.44;;;13.81;64.39
33953;BME280;20231;42.710;23.280;2023-03-22T12:55:58;94788.50;;;13.88;64.32
33953;BME280;20231;42.710;23.280;2023-03-22T12:58:25;94793.13;;;13.83;64.35
33953;BME280;20231;42.710;23.280;2023-03-22T13:00:54;94779.69;;;13.79;64.30
33953;BME280;20231;42.710;23.280;2023-03-22T13:03:26;94790.97;;;13.85;64.48
33953;BME280;20231;42.710;23.280;2023-03-22T13:06:27;94788.59;;;13.83;64.43
33953;BME280;20231;42.710;23.280;2023-03-22T13:09:12;94795.13;;;13.99;64.35
33953;BME280;20231;42.710;23.280;2023-03-22T13:11:44;94775.69;;;13.90;64.04
33953;BME280;20231;42.710;23.280;2023-03-22T13:14:13;94789.75;;;13.91;63.54
33953;BME280;20231;42.710;23.280;2023-03-22T13:16:59;94789.94;;;13.94;62.95
33953;BME280;20231;42.710;23.280;2023-03-22T13:19:31;94784.16;;;13.92;63.18
33953;BME280;20231;42.710;23.280;2023-03-22T13:25:06;94785.78;;;14.02;63.25
33953;BME280;20231;42.710;23.280;2023-03-22T13:30:16;94779.56;;;14.06;64.58
33953;BME280;20231;42.710;23.280;2023-03-22T13:35:24;94781.84;;;14.21;64.47
33953;BME280;20231;42.710;23.280;2023-03-22T13:37:54;94777.63;;;14.20;64.24
33953;BME280;20231;42.710;23.280;2023-03-22T13:40:35;94769.53;;;14.64;76.34
33953;BME280;20231;42.710;23.280;2023-03-22T13:43:22;94773.78;;;14.73;77.50
33953;BME280;20231;42.710;23.280;2023-03-22T13:59:02;94769.84;;;15.18;61.52
33953;BME280;20231;42.710;23.280;2023-03-22T14:01:32;94771.41;;;15.19;61.95
33953;BME280;20231;42.710;23.280;2023-03-22T14:04:07;94758.13;;;15.10;61.89
33953;BME280;20231;42.710;23.280;2023-03-22T14:06:42;94763.13;;;15.12;61.95
33953;BME280;20231;42.710;23.280;2023-03-22T14:09:21;94760.78;;;15.02;61.48
33953;BME280;20231;42.710;23.280;2023-03-22T14:11:55;94767.50;;;15.08;61.12
33953;BME280;20231;42.710;23.280;2023-03-22T14:14:28;94771.84;;;15.04;60.90
33953;BME280;20231;42.710;23.280;2023-03-22T14:17:02;94780.47;;;15.09;61.06
33953;BME280;20231;42.710;23.280;2023-03-22T14:19:32;94770.00;;;15.04;60.91
33953;BME280;20231;42.710;23.280;2023-03-22T14:22:02;94773.75;;;15.12;61.08
33953;BME280;20231;42.710;23.280;2023-03-22T14:24:32;94766.09;;;15.10;60.87